Time;durP1;ratioP1;P1;durP2;ratioP2;P2;SDS_P1;SDS_P2;PMS_P1;PMS_P2;Temp;Humidity;BMP_temperature;BMP_pressure;BME280_temperature;BME280_humidity;BME280_pressure;Samples;Min_cycle;Max_cycle;Signal;HPM_P1;HPM_P2
2023/03/05 00:01:53;;;;;;;4.87;2.50;;;2.90;1.00;;;;;;5051157;28;20937;-72
2023/03/05 00:04:20;;;;;;;4.40;3.87;;;2.90;1.00;;;;;;5050293;28;20427;-72
2023/03/05 00:06:45;;;;;;;10.83;2.83;;;2.90;1.00;;;;;;5052867;28;20186;-73
2023/03/05 00:09:11;;;;;;;6.37;2.87;;;2.90;1.00;;;;;;5050691;28;20839;-68
2023/03/05 00:11:38;;;;;;;4.77;3.20;;;2.80;1.00;;;;;;5037866;28;20304;-74
2023/03/05 00:14:05;;;;;;;4.40;2.70;;;2.80;1.00;;;;;;5052128;28;20194;-73
2023/03/05 00:16:32;;;;;;;7.07;2.70;;;2.80;1.00;;;;;;5032170;28;20419;-69
2023/03/05 00:18:59;;;;;;;3.13;2.07;;;2.80;1.00;;;;;;5050642;28;20441;-73
2023/03/05 00:21:26;;;;;;;3.80;2.40;;;2.80;1.00;;;;;;5036410;28;20475;-67
2023/03/05 00:23:53;;;;;;;7.27;2.50;;;2.80;1.00;;;;;;5052891;28;20406;-71
2023/03/05 00:26:21;;;;;;;4.57;3.00;;;2.80;1.00;;;;;;5034834;28;20526;-73
2023/03/05 00:28:48;;;;;;;7.07;3.80;;;2.70;1.00;;;;;;5032704;28;20458;-67
2023/03/05 00:31:16;;;;;;;3.53;2.47;;;2.70;1.00;;;;;;5048213;28;20413;-72
2023/03/05 00:33:42;;;;;;;8.67;3.00;;;2.70;1.00;;;;;;5052755;28;20493;-67
2023/03/05 00:36:08;;;;;;;4.33;2.00;;;2.70;1.00;;;;;;5033876;28;20506;-68
2023/03/05 00:38:34;;;;;;;5.90;3.40;;;2.70;1.00;;;;;;5041839;28;20436;-68
2023/03/05 00:41:00;;;;;;;10.43;2.30;;;2.70;1.00;;;;;;5033391;28;20410;-73
2023/03/05 00:43:27;;;;;;;5.57;2.70;;;2.70;1.00;;;;;;5052491;28;20182;-73
2023/03/05 00:45:52;;;;;;;8.83;2.43;;;2.80;1.00;;;;;;5035799;28;20512;-68
2023/03/05 00:48:18;;;;;;;2.40;2.20;;;2.80;1.00;;;;;;5036522;28;20865;-73
2023/03/05 00:50:44;;;;;;;7.07;2.17;;;2.80;1.00;;;;;;5039465;28;20175;-67
2023/03/05 00:53:09;;;;;;;6.90;2.40;;;2.80;1.00;;;;;;5038284;28;20190;-67
2023/03/05 00:55:35;;;;;;;2.73;2.53;;;2.90;1.00;;;;;;5055398;28;20237;-73
2023/03/05 00:58:01;;;;;;;2.70;2.50;;;2.90;1.00;;;;;;5054774;28;20212;-72
2023/03/05 01:00:27;;;;;;;3.40;2.90;;;2.90;1.00;;;;;;5036366;28;20255;-73
2023/03/05 01:02:53;;;;;;;7.10;2.80;;;2.90;1.00;;;;;;5050411;28;21169;-73
2023/03/05 01:05:19;;;;;;;6.60;2.90;;;2.80;1.00;;;;;;5036179;28;20480;-72
2023/03/05 01:07:45;;;;;;;5.63;2.57;;;2.80;1.00;;;;;;5037742;28;20540;-67
2023/03/05 01:10:11;;;;;;;5.10;3.20;;;2.80;1.00;;;;;;5038762;28;20422;-72
2023/03/05 01:12:37;;;;;;;7.93;2.47;;;2.80;1.00;;;;;;5046908;28;20229;-73
2023/03/05 01:15:04;;;;;;;4.03;2.60;;;2.70;1.00;;;;;;5038366;28;20441;-72
2023/03/05 01:17:30;;;;;;;3.73;2.50;;;2.70;1.00;;;;;;5035183;28;20409;-73
2023/03/05 01:19:56;;;;;;;6.73;2.27;;;2.70;1.00;;;;;;5049662;28;20425;-70
2023/03/05 01:22:21;;;;;;;7.03;2.03;;;2.70;1.00;;;;;;5049958;28;20186;-67
2023/03/05 01:24:47;;;;;;;2.20;2.00;;;2.60;1.00;;;;;;5042251;28;20383;-73
2023/03/05 01:27:13;;;;;;;6.13;2.47;;;2.60;1.00;;;;;;5035898;28;20540;-68
2023/03/05 01:29:39;;;;;;;4.53;2.23;;;2.50;1.00;;;;;;5044782;28;20613;-67
2023/03/05 01:32:05;;;;;;;4.77;2.53;;;2.50;1.00;;;;;;5054995;28;20433;-67
2023/03/05 01:34:31;;;;;;;8.10;2.70;;;2.50;1.00;;;;;;5044310;28;20636;-68
2023/03/05 01:36:56;;;;;;;3.10;2.63;;;2.50;1.00;;;;;;5033300;28;20437;-73
2023/03/05 01:39:22;;;;;;;10.13;2.67;;;2.50;1.00;;;;;;5041498;28;20182;-67
2023/03/05 01:41:48;;;;;;;4.50;2.00;;;2.50;1.00;;;;;;5054625;28;20182;-67
2023/03/05 01:44:22;;;;;;;6.33;1.83;;;2.50;1.00;;;;;;5048770;28;20262;-67
2023/03/05 01:46:48;;;;;;;10.30;2.97;;;2.50;1.00;;;;;;5035350;28;20279;-67
2023/03/05 01:49:24;;;;;;;3.53;1.70;;;2.50;1.00;;;;;;5038335;28;20454;-70
2023/03/05 01:52:16;;;;;;;3.20;2.30;;;2.30;1.00;;;;;;5035053;28;20517;-73
2023/03/05 01:54:46;;;;;;;10.70;2.40;;;2.30;1.00;;;;;;5046084;28;20940;-67
2023/03/05 01:57:25;;;;;;;4.13;2.17;;;2.30;1.00;;;;;;5053029;28;20969;-67
2023/03/05 01:59:55;;;;;;;7.43;2.00;;;2.30;1.00;;;;;;5042181;28;20457;-72
2023/03/05 02:02:21;;;;;;;5.50;1.80;;;2.30;1.00;;;;;;5034627;28;20469;-67
2023/03/05 02:04:57;;;;;;;3.73;1.67;;;2.30;1.00;;;;;;5037193;28;20453;-67
2023/03/05 02:07:23;;;;;;;7.07;2.33;;;2.30;1.00;;;;;;5047652;28;20437;-67
2023/03/05 02:09:49;;;;;;;3.37;2.23;;;2.20;1.00;;;;;;5039909;28;20466;-73
2023/03/05 02:12:15;;;;;;;4.03;2.30;;;2.20;1.00;;;;;;5041572;28;20436;-73
2023/03/05 02:14:44;;;;;;;7.40;2.67;;;2.20;1.00;;;;;;5039882;28;20184;-67
2023/03/05 02:17:10;;;;;;;3.83;2.17;;;2.20;1.00;;;;;;5034903;28;20501;-73
2023/03/05 02:20:01;;;;;;;3.43;2.20;;;2.20;1.00;;;;;;5046681;28;20461;-67
2023/03/05 02:22:27;;;;;;;2.63;2.17;;;2.20;1.00;;;;;;5043121;28;20993;-67
2023/03/05 02:24:53;;;;;;;11.20;2.60;;;2.20;1.00;;;;;;5033801;28;20444;-67
2023/03/05 02:27:23;;;;;;;8.30;1.87;;;2.10;1.00;;;;;;5041611;28;20179;-73
2023/03/05 02:29:50;;;;;;;3.70;2.73;;;2.20;1.00;;;;;;5036273;28;20576;-67
2023/03/05 02:32:16;;;;;;;7.43;2.10;;;2.10;1.00;;;;;;5040666;28;20429;-72
2023/03/05 02:34:42;;;;;;;4.70;2.73;;;2.10;1.00;;;;;;5042655;28;20450;-67
2023/03/05 02:37:09;;;;;;;3.47;2.57;;;2.10;1.00;;;;;;5034664;28;20230;-72
2023/03/05 02:39:35;;;;;;;5.27;2.23;;;2.20;1.00;;;;;;5041252;28;20174;-73
2023/03/05 02:42:00;;;;;;;2.50;1.90;;;2.10;1.00;;;;;;5039324;28;20440;-67
2023/03/05 02:44:26;;;;;;;3.53;2.30;;;2.10;1.00;;;;;;5046164;28;20495;-73
2023/03/05 02:46:52;;;;;;;4.00;2.13;;;2.10;1.00;;;;;;5034321;28;20204;-66
2023/03/05 02:49:18;;;;;;;2.63;1.90;;;2.10;1.00;;;;;;5039082;28;20356;-73
2023/03/05 02:51:44;;;;;;;2.90;2.17;;;2.10;1.00;;;;;;5048706;28;20521;-73
2023/03/05 02:54:09;;;;;;;2.80;2.60;;;2.10;1.00;;;;;;5049580;28;20786;-73
2023/03/05 02:56:37;;;;;;;5.13;2.43;;;2.20;1.00;;;;;;5053437;28;20202;-67
2023/03/05 02:59:03;;;;;;;2.67;2.40;;;2.30;1.00;;;;;;5039442;28;20171;-67
2023/03/05 03:01:28;;;;;;;4.20;2.50;;;2.30;1.00;;;;;;5049772;28;20798;-72
2023/03/05 03:03:54;;;;;;;10.50;2.40;;;2.30;1.00;;;;;;5040853;28;20787;-73
2023/03/05 03:06:20;;;;;;;3.27;2.10;;;2.30;1.00;;;;;;5033054;28;20187;-67
2023/03/05 03:08:46;;;;;;;2.40;2.30;;;2.20;1.00;;;;;;5043466;28;20456;-67
2023/03/05 03:11:12;;;;;;;4.23;2.30;;;2.30;1.00;;;;;;5052874;28;20620;-73
2023/03/05 03:13:38;;;;;;;9.67;2.97;;;2.20;1.00;;;;;;5043141;28;20230;-73
2023/03/05 03:16:08;;;;;;;8.20;2.47;;;2.30;1.00;;;;;;5032801;28;20475;-73
2023/03/05 03:18:33;;;;;;;5.67;3.53;;;2.30;1.00;;;;;;5036807;28;20938;-68
2023/03/05 03:20:59;;;;;;;4.93;1.93;;;2.30;1.00;;;;;;5033743;28;20406;-72
2023/03/05 03:23:25;;;;;;;4.30;1.80;;;2.20;1.00;;;;;;5038339;28;20438;-73
2023/03/05 03:25:51;;;;;;;2.60;1.80;;;2.20;1.00;;;;;;5032604;28;20422;-68
2023/03/05 03:28:17;;;;;;;2.90;2.40;;;2.30;1.00;;;;;;5038758;28;20818;-72
2023/03/05 03:30:43;;;;;;;12.00;2.47;;;2.30;1.00;;;;;;5053062;28;20178;-67
2023/03/05 03:33:08;;;;;;;2.57;1.73;;;2.30;1.00;;;;;;5045406;28;20184;-72
2023/03/05 03:35:34;;;;;;;2.73;1.80;;;2.30;1.00;;;;;;5032434;28;20211;-68
2023/03/05 03:38:00;;;;;;;6.33;2.40;;;2.40;1.00;;;;;;5037185;28;20174;-67
2023/03/05 03:40:25;;;;;;;5.53;1.87;;;2.40;1.00;;;;;;5052550;28;20187;-73
2023/03/05 03:42:52;;;;;;;2.63;2.00;;;2.30;1.00;;;;;;5048615;28;20184;-67
2023/03/05 03:45:18;;;;;;;3.00;2.23;;;2.30;1.00;;;;;;5048156;28;20659;-67
2023/03/05 03:47:43;;;;;;;2.70;1.77;;;2.40;1.00;;;;;;5050724;28;20483;-67
2023/03/05 03:50:10;;;;;;;5.90;2.03;;;2.30;1.00;;;;;;5033180;28;20182;-73
2023/03/05 03:52:35;;;;;;;4.80;1.83;;;2.30;1.00;;;;;;5032574;28;20183;-71
2023/03/05 03:55:01;;;;;;;5.60;2.40;;;2.30;1.00;;;;;;5052284;28;20973;-73
2023/03/05 03:57:28;;;;;;;3.03;2.20;;;2.30;1.00;;;;;;5053068;28;20167;-67
2023/03/05 03:59:54;;;;;;;6.03;2.47;;;2.30;1.00;;;;;;5034150;28;20175;-70
2023/03/05 04:02:20;;;;;;;3.80;2.10;;;2.30;1.00;;;;;;5037054;28;20441;-72
2023/03/05 04:04:45;;;;;;;7.03;2.10;;;2.30;1.00;;;;;;5033160;28;20595;-73
2023/03/05 04:07:11;;;;;;;10.03;2.50;;;2.30;1.00;;;;;;5032833;28;20406;-68
2023/03/05 04:09:37;;;;;;;3.50;2.47;;;2.30;1.00;;;;;;5047970;28;20207;-67
2023/03/05 04:12:03;;;;;;;3.80;2.10;;;2.30;1.00;;;;;;5051572;28;20783;-73
2023/03/05 04:14:29;;;;;;;2.33;2.13;;;2.30;1.00;;;;;;5034421;28;20419;-72
2023/03/05 04:16:54;;;;;;;4.87;1.83;;;2.30;1.00;;;;;;5032871;28;20187;-67
2023/03/05 04:19:21;;;;;;;7.30;3.43;;;2.30;1.00;;;;;;5046872;28;20320;-72
2023/03/05 04:21:46;;;;;;;3.80;2.20;;;2.40;1.00;;;;;;5053193;28;20186;-68
2023/03/05 04:24:12;;;;;;;3.07;1.73;;;2.40;1.00;;;;;;5042773;28;20425;-67
2023/03/05 04:26:38;;;;;;;2.90;2.10;;;2.40;1.00;;;;;;5036160;28;20195;-67
2023/03/05 04:29:03;;;;;;;6.53;3.17;;;2.30;1.00;;;;;;5039979;28;20237;-67
2023/03/05 04:31:29;;;;;;;4.00;2.37;;;2.30;1.00;;;;;;5035927;28;20182;-67
2023/03/05 04:33:55;;;;;;;2.50;1.97;;;2.30;1.00;;;;;;5037704;28;20530;-69
2023/03/05 04:36:20;;;;;;;10.57;2.67;;;2.20;1.00;;;;;;5035749;28;20210;-68
2023/03/05 04:38:46;;;;;;;3.20;2.50;;;2.20;1.00;;;;;;5048906;28;20179;-67
2023/03/05 04:41:12;;;;;;;3.57;1.90;;;2.10;1.00;;;;;;5054425;28;20190;-68
2023/03/05 04:43:37;;;;;;;2.90;1.83;;;2.20;1.00;;;;;;5052972;28;20233;-67
2023/03/05 04:46:03;;;;;;;2.27;2.07;;;2.20;1.00;;;;;;5054307;28;20233;-73
2023/03/05 04:48:29;;;;;;;2.27;2.07;;;2.20;1.00;;;;;;5053825;28;20202;-73
2023/03/05 04:50:56;;;;;;;2.10;1.90;;;2.20;1.00;;;;;;5056469;28;20751;-67
2023/03/05 04:53:22;;;;;;;12.03;2.13;;;2.10;1.00;;;;;;5038382;28;20180;-73
2023/03/05 04:55:55;;;;;;;4.80;2.27;;;2.10;1.00;;;;;;5035556;28;20430;-67
2023/03/05 04:58:21;;;;;;;11.03;2.80;;;2.10;1.00;;;;;;5051753;28;20190;-69
2023/03/05 05:00:47;;;;;;;4.73;2.70;;;2.10;1.00;;;;;;5055466;28;20453;-72
2023/03/05 05:03:13;;;;;;;4.40;1.67;;;2.10;1.00;;;;;;5046963;28;20473;-73
2023/03/05 05:05:38;;;;;;;3.23;1.70;;;2.10;1.00;;;;;;5035375;28;20192;-67
2023/03/05 05:08:04;;;;;;;5.27;1.80;;;2.00;1.00;;;;;;5051877;28;20459;-67
2023/03/05 05:10:30;;;;;;;2.90;1.70;;;1.90;1.00;;;;;;5056191;28;20516;-67
2023/03/05 05:12:56;;;;;;;1.63;1.53;;;1.90;1.00;;;;;;5044987;28;20257;-72
2023/03/05 05:15:22;;;;;;;2.13;2.00;;;1.90;1.00;;;;;;5054078;28;20752;-67
2023/03/05 05:17:48;;;;;;;3.50;1.70;;;2.00;1.00;;;;;;5041170;28;20540;-72
2023/03/05 05:20:15;;;;;;;2.40;2.20;;;1.90;1.00;;;;;;5036007;28;20434;-67
2023/03/05 05:22:42;;;;;;;1.80;1.70;;;1.90;1.00;;;;;;5044589;28;20336;-74
2023/03/05 05:25:09;;;;;;;5.47;2.83;;;1.90;1.00;;;;;;5055032;28;20429;-73
2023/03/05 05:27:35;;;;;;;5.50;1.57;;;1.90;1.00;;;;;;5042097;28;20418;-67
2023/03/05 05:30:02;;;;;;;7.07;2.67;;;1.80;1.00;;;;;;5034446;28;20472;-73
2023/03/05 05:32:27;;;;;;;3.37;1.60;;;1.80;1.00;;;;;;5047432;28;20511;-67
2023/03/05 05:34:54;;;;;;;6.00;2.00;;;1.80;1.00;;;;;;5052133;28;20859;-67
2023/03/05 05:37:21;;;;;;;8.33;2.13;;;1.80;1.00;;;;;;5044466;28;20179;-68
2023/03/05 05:39:49;;;;;;;8.87;2.27;;;1.80;1.00;;;;;;5035805;28;20449;-67
2023/03/05 05:42:20;;;;;;;2.33;1.87;;;1.80;1.00;;;;;;5037457;28;20492;-72
2023/03/05 05:44:46;;;;;;;3.57;2.10;;;1.80;1.00;;;;;;5050386;28;20437;-73
2023/03/05 05:47:13;;;;;;;2.33;2.03;;;1.80;1.00;;;;;;5043343;28;20914;-71
2023/03/05 05:49:39;;;;;;;7.33;2.23;;;1.80;1.00;;;;;;5034934;28;20832;-73
2023/03/05 05:52:05;;;;;;;4.90;1.97;;;1.70;1.00;;;;;;5042771;28;20517;-69
2023/03/05 05:54:31;;;;;;;5.53;2.10;;;1.70;1.00;;;;;;5052243;28;20509;-67
2023/03/05 05:56:56;;;;;;;10.47;2.70;;;1.70;1.00;;;;;;5046280;28;20488;-67
2023/03/05 05:59:22;;;;;;;4.33;2.17;;;1.70;1.00;;;;;;5035251;28;20214;-67
2023/03/05 06:01:48;;;;;;;10.70;2.83;;;1.70;1.00;;;;;;5040597;28;20186;-67
2023/03/05 06:04:13;;;;;;;2.30;2.10;;;1.70;1.00;;;;;;5053838;28;20191;-67
2023/03/05 06:06:39;;;;;;;23.63;3.40;;;1.70;1.00;;;;;;5047986;28;20199;-74
2023/03/05 06:09:05;;;;;;;5.73;1.97;;;1.70;1.00;;;;;;5034880;28;20206;-73
2023/03/05 06:11:32;;;;;;;7.50;2.33;;;1.70;1.00;;;;;;5037916;28;20184;-73
2023/03/05 06:13:58;;;;;;;3.63;2.07;;;1.60;1.00;;;;;;5033739;28;20456;-72
2023/03/05 06:16:24;;;;;;;2.23;1.77;;;1.60;1.00;;;;;;5035658;28;20931;-67
2023/03/05 06:18:51;;;;;;;4.03;1.87;;;1.60;1.00;;;;;;5054825;28;20817;-72
2023/03/05 06:21:19;;;;;;;11.17;2.40;;;1.60;1.00;;;;;;5052820;28;20410;-74
2023/03/05 06:23:46;;;;;;;4.43;2.40;;;1.60;1.00;;;;;;5050263;28;20456;-74
2023/03/05 06:26:15;;;;;;;3.40;1.90;;;1.60;1.00;;;;;;5053749;28;20429;-73
2023/03/05 06:28:40;;;;;;;4.87;2.00;;;1.50;1.00;;;;;;5041462;28;20455;-68
2023/03/05 06:31:20;;;;;;;4.37;2.00;;;1.50;1.00;;;;;;5053092;28;20501;-68
2023/03/05 06:33:46;;;;;;;4.80;2.50;;;1.50;1.00;;;;;;5049823;28;20262;-73
2023/03/05 06:36:15;;;;;;;4.40;1.97;;;1.50;1.00;;;;;;5033439;28;20450;-67
2023/03/05 06:38:41;;;;;;;2.70;1.60;;;1.40;1.00;;;;;;5035720;28;20422;-67
2023/03/05 06:41:10;;;;;;;2.23;2.03;;;1.50;1.00;;;;;;5052505;28;20428;-73
2023/03/05 06:43:42;;;;;;;2.80;2.10;;;1.50;1.00;;;;;;5047338;28;20448;-65
2023/03/05 06:46:17;;;;;;;4.60;2.10;;;1.60;1.00;;;;;;5052973;28;20449;-66
2023/03/05 06:48:44;;;;;;;4.43;2.17;;;1.60;1.00;;;;;;5034003;28;20425;-67
2023/03/05 06:51:23;;;;;;;2.07;1.83;;;1.60;1.00;;;;;;5036531;28;20432;-71
2023/03/05 06:53:49;;;;;;;3.40;2.20;;;1.60;1.00;;;;;;5053216;28;20443;-68
2023/03/05 06:56:17;;;;;;;4.13;2.00;;;1.60;1.00;;;;;;5044209;28;20997;-70
2023/03/05 06:58:44;;;;;;;2.20;2.00;;;1.80;1.00;;;;;;5032862;28;20829;-70
2023/03/05 07:01:10;;;;;;;3.83;2.10;;;1.80;1.00;;;;;;5040229;28;20421;-70
2023/03/05 07:03:37;;;;;;;2.13;2.03;;;1.70;1.00;;;;;;5047492;28;20495;-65
2023/03/05 07:06:07;;;;;;;11.30;2.67;;;1.70;1.00;;;;;;5045098;28;21028;-70
2023/03/05 07:08:34;;;;;;;2.53;2.33;;;1.70;1.00;;;;;;5048637;28;20457;-68
2023/03/05 07:11:00;;;;;;;5.40;2.03;;;1.70;1.00;;;;;;5047059;28;20427;-70
2023/03/05 07:13:26;;;;;;;5.87;2.57;;;1.70;1.00;;;;;;5045134;28;20433;-70
2023/03/05 07:15:52;;;;;;;3.13;2.20;;;1.70;1.00;;;;;;5049222;28;20837;-65
2023/03/05 07:18:18;;;;;;;2.07;1.97;;;1.80;1.00;;;;;;5033798;28;20894;-70
2023/03/05 07:20:44;;;;;;;2.33;2.13;;;1.80;1.00;;;;;;5035020;28;20410;-72
2023/03/05 07:23:09;;;;;;;3.00;2.00;;;1.90;1.00;;;;;;5052774;28;20187;-70
2023/03/05 07:25:36;;;;;;;1.77;1.67;;;2.00;1.00;;;;;;5052311;28;20194;-68
2023/03/05 07:28:07;;;;;;;3.27;2.07;;;2.20;1.00;;;;;;5032551;28;20171;-70
2023/03/05 07:30:33;;;;;;;3.87;2.40;;;2.40;1.00;;;;;;5033712;28;20406;-66
2023/03/05 07:32:59;;;;;;;6.83;3.13;;;2.50;1.00;;;;;;5051367;28;20516;-71
2023/03/05 07:35:25;;;;;;;8.67;3.40;;;2.60;1.00;;;;;;5051253;28;20497;-65
2023/03/05 07:37:51;;;;;;;7.43;3.20;;;2.70;1.00;;;;;;5034396;28;20422;-67
2023/03/05 07:40:17;;;;;;;2.53;2.03;;;2.80;1.00;;;;;;5033483;28;20448;-65
2023/03/05 07:42:43;;;;;;;3.70;2.13;;;2.90;1.00;;;;;;5047912;28;20479;-65
2023/03/05 07:45:09;;;;;;;8.37;2.27;;;3.00;1.00;;;;;;5052496;28;20825;-65
2023/03/05 07:47:35;;;;;;;7.80;2.17;;;3.10;1.00;;;;;;5037971;28;20180;-65
2023/03/05 07:50:02;;;;;;;4.13;1.70;;;3.20;1.00;;;;;;5033086;28;20454;-70
2023/03/05 07:52:28;;;;;;;3.30;2.00;;;3.20;1.00;;;;;;5033730;28;20512;-65
2023/03/05 07:54:53;;;;;;;4.70;1.70;;;3.20;1.00;;;;;;5035566;28;20864;-70
2023/03/05 07:57:19;;;;;;;2.30;1.73;;;3.30;1.00;;;;;;5035696;28;20438;-70
2023/03/05 07:59:45;;;;;;;2.30;2.10;;;3.30;1.00;;;;;;5040736;28;20240;-65
2023/03/05 08:02:12;;;;;;;4.83;2.10;;;3.30;1.00;;;;;;5034947;28;20199;-70
2023/03/05 08:04:38;;;;;;;3.33;2.00;;;3.30;1.00;;;;;;5031293;28;20394;-70
2023/03/05 08:07:04;;;;;;;3.47;2.20;;;3.30;1.00;;;;;;5047149;28;20437;-65
2023/03/05 08:09:30;;;;;;;2.60;2.20;;;3.30;1.00;;;;;;5045791;28;20965;-70
2023/03/05 08:11:55;;;;;;;5.63;2.00;;;3.30;1.00;;;;;;5043501;28;20194;-71
2023/03/05 08:14:21;;;;;;;6.30;3.00;;;3.10;1.00;;;;;;5052058;28;20167;-71
2023/03/05 08:16:51;;;;;;;14.57;2.90;;;3.00;1.00;;;;;;5040796;28;20282;-65
2023/03/05 08:19:18;;;;;;;1.53;1.43;;;3.10;1.00;;;;;;5040113;28;20438;-70
2023/03/05 08:21:45;;;;;;;4.03;2.50;;;3.10;1.00;;;;;;5032896;28;20412;-65
2023/03/05 08:24:11;;;;;;;4.80;2.53;;;3.20;1.00;;;;;;5031691;28;20407;-66
2023/03/05 08:26:38;;;;;;;3.43;1.80;;;3.20;1.00;;;;;;5036044;28;20441;-66
2023/03/05 08:29:06;;;;;;;1.80;1.70;;;3.30;1.00;;;;;;5040515;28;20487;-70
2023/03/05 08:31:32;;;;;;;2.33;2.13;;;3.40;1.00;;;;;;5046978;28;20951;-65
2023/03/05 08:33:59;;;;;;;3.20;1.80;;;3.50;1.00;;;;;;5031219;28;20469;-67
2023/03/05 08:36:25;;;;;;;3.17;1.90;;;3.50;1.00;;;;;;5031507;28;20494;-71
2023/03/05 08:38:52;;;;;;;3.03;1.90;;;3.60;1.00;;;;;;5031482;28;20480;-66
2023/03/05 08:41:18;;;;;;;5.53;2.50;;;3.80;1.00;;;;;;5032519;28;20430;-71
2023/03/05 08:43:44;;;;;;;2.50;1.87;;;3.80;1.00;;;;;;5032082;28;20409;-66
2023/03/05 08:46:12;;;;;;;4.50;2.10;;;3.80;1.00;;;;;;5041855;28;20442;-66
2023/03/05 08:48:38;;;;;;;2.83;1.93;;;3.80;1.00;;;;;;5051679;28;20213;-71
2023/03/05 08:51:12;;;;;;;2.37;1.90;;;3.90;1.00;;;;;;5052735;28;20406;-66
2023/03/05 08:53:38;;;;;;;1.97;1.53;;;4.10;1.00;;;;;;5052550;28;20894;-70
2023/03/05 08:56:05;;;;;;;7.57;1.90;;;4.10;1.00;;;;;;5049167;28;20545;-67
2023/03/05 08:58:31;;;;;;;10.43;3.03;;;4.20;1.00;;;;;;5052368;28;20405;-70
2023/03/05 09:00:56;;;;;;;1.77;1.67;;;4.30;1.00;;;;;;5052365;28;20406;-66
2023/03/05 09:03:22;;;;;;;4.40;2.30;;;4.30;1.00;;;;;;5050731;28;20943;-66
2023/03/05 09:05:48;;;;;;;4.87;1.97;;;4.40;1.00;;;;;;5050529;28;20198;-65
2023/03/05 09:08:14;;;;;;;2.57;1.43;;;4.40;1.00;;;;;;5056083;28;20316;-67
2023/03/05 09:10:44;;;;;;;9.77;2.27;;;4.50;1.00;;;;;;5056073;28;20165;-71
2023/03/05 09:13:10;;;;;;;1.83;1.73;;;4.40;1.00;;;;;;5056166;28;20168;-66
2023/03/05 09:15:36;;;;;;;2.17;1.93;;;4.50;1.00;;;;;;5054993;28;20417;-72
2023/03/05 09:18:02;;;;;;;9.33;2.10;;;4.80;1.00;;;;;;5055670;28;20413;-66
2023/03/05 09:20:28;;;;;;;1.87;1.77;;;5.00;1.00;;;;;;5054180;28;20500;-71
2023/03/05 09:22:54;;;;;;;3.90;2.40;;;5.00;1.00;;;;;;5055746;28;20499;-71
2023/03/05 09:25:20;;;;;;;5.03;2.23;;;5.00;1.00;;;;;;5054932;28;20421;-67
2023/03/05 09:27:45;;;;;;;7.50;2.50;;;4.90;1.00;;;;;;5054840;28;20439;-68
2023/03/05 09:30:13;;;;;;;4.10;2.30;;;4.90;1.00;;;;;;5055686;28;20285;-72
2023/03/05 09:32:38;;;;;;;3.20;1.57;;;5.20;1.00;;;;;;5049815;28;20175;-66
2023/03/05 09:35:05;;;;;;;4.70;2.17;;;5.30;1.00;;;;;;5054647;28;20473;-66
2023/03/05 09:37:31;;;;;;;4.53;1.93;;;5.20;1.00;;;;;;5054085;28;20174;-72
2023/03/05 09:39:57;;;;;;;4.13;2.10;;;5.20;1.00;;;;;;5053797;28;20412;-66
2023/03/05 09:42:47;;;;;;;5.87;1.93;;;5.20;1.00;;;;;;5055579;28;20408;-71
2023/03/05 09:45:31;;;;;;;7.20;2.00;;;5.20;1.00;;;;;;5054545;28;20594;-68
2023/03/05 09:48:03;;;;;;;3.67;1.60;;;5.20;1.00;;;;;;5053727;28;20463;-70
2023/03/05 09:50:53;;;;;;;6.00;2.50;;;5.30;1.00;;;;;;5055444;28;20476;-71
2023/03/05 09:53:21;;;;;;;4.37;1.90;;;5.50;1.00;;;;;;5055281;28;20393;-68
2023/03/05 09:55:53;;;;;;;4.13;1.50;;;5.70;1.00;;;;;;5054455;28;20424;-71
2023/03/05 09:58:34;;;;;;;9.90;2.90;;;5.70;1.00;;;;;;5048543;28;20437;-66
2023/03/05 10:01:06;;;;;;;2.00;1.70;;;5.70;1.00;;;;;;5055054;28;20400;-70
2023/03/05 10:03:53;;;;;;;6.73;1.77;;;5.80;1.00;;;;;;5055101;28;20758;-71
2023/03/05 10:06:49;;;;;;;3.43;2.00;;;5.60;1.00;;;;;;5052231;28;20882;-66
2023/03/05 10:09:36;;;;;;;3.00;2.00;;;5.90;1.00;;;;;;5035032;28;20445;-67
2023/03/05 10:12:09;;;;;;;4.20;1.80;;;6.10;1.00;;;;;;5035102;28;20402;-66
2023/03/05 10:14:39;;;;;;;3.53;2.03;;;5.90;1.00;;;;;;5033707;28;20485;-71
2023/03/05 10:17:36;;;;;;;2.60;1.83;;;5.80;1.00;;;;;;5033860;28;20467;-66
2023/03/05 10:20:39;;;;;;;7.17;2.23;;;5.80;1.00;;;;;;5045571;28;20938;-66
2023/03/05 10:23:24;;;;;;;4.27;1.67;;;5.90;1.00;;;;;;5054747;28;20902;-68
2023/03/05 10:26:08;;;;;;;1.70;1.60;;;5.80;1.00;;;;;;5037851;28;20496;-72
2023/03/05 10:29:13;;;;;;;12.03;2.90;;;5.70;1.00;;;;;;5044048;28;20458;-68
2023/03/05 10:31:42;;;;;;;3.03;1.87;;;6.00;1.00;;;;;;5034904;28;20398;-73
2023/03/05 10:34:20;;;;;;;6.07;2.13;;;6.50;1.00;;;;;;5033498;28;20398;-69
2023/03/05 10:37:13;;;;;;;1.73;1.63;;;6.50;1.00;;;;;;5054167;28;20429;-68
2023/03/05 10:39:53;;;;;;;2.70;2.00;;;6.10;1.00;;;;;;5053253;28;20805;-71
2023/03/05 10:42:44;;;;;;;3.00;2.00;;;6.00;1.00;;;;;;5048844;28;20430;-72
2023/03/05 10:45:39;;;;;;;4.40;2.47;;;6.80;1.00;;;;;;5053398;28;20429;-73
2023/03/05 10:48:31;;;;;;;6.83;2.33;;;6.80;1.00;;;;;;5053814;28;20424;-68
2023/03/05 10:51:11;;;;;;;5.17;1.60;;;6.60;1.00;;;;;;5054229;28;20408;-72
2023/03/05 10:53:56;;;;;;;1.80;1.57;;;6.70;1.00;;;;;;5035955;28;20434;-68
2023/03/05 10:56:25;;;;;;;3.73;1.40;;;6.90;1.00;;;;;;5053247;28;20861;-72
2023/03/05 10:58:51;;;;;;;2.80;1.70;;;7.40;1.00;;;;;;5054115;28;20818;-72
2023/03/05 11:01:17;;;;;;;1.87;1.73;;;8.10;1.00;;;;;;5054019;28;20491;-68
2023/03/05 11:04:02;;;;;;;1.93;1.70;;;8.60;1.00;;;;;;5034969;28;20825;-68
2023/03/05 11:06:36;;;;;;;1.67;1.57;;;8.70;1.00;;;;;;5033378;28;20558;-73
2023/03/05 11:09:28;;;;;;;3.77;2.00;;;8.40;1.00;;;;;;5033987;28;20454;-73
2023/03/05 11:12:18;;;;;;;1.60;1.50;;;7.80;1.00;;;;;;5034613;28;20420;-71
2023/03/05 11:15:12;;;;;;;1.93;1.83;;;7.10;1.00;;;;;;5052388;28;20501;-71
2023/03/05 11:17:47;;;;;;;1.90;1.33;;;6.30;1.00;;;;;;5050532;28;20453;-71
2023/03/05 11:20:19;;;;;;;2.00;1.90;;;5.90;99.90;;;;;;5040702;28;20845;-67
2023/03/05 11:23:04;;;;;;;3.80;1.90;;;5.60;99.90;;;;;;5041266;28;20433;-71
2023/03/05 11:25:31;;;;;;;6.10;2.20;;;5.50;99.90;;;;;;5052560;28;20898;-71
2023/03/05 11:27:59;;;;;;;5.53;2.30;;;5.60;1.00;;;;;;5053535;28;20751;-69
2023/03/05 11:30:36;;;;;;;8.30;2.53;;;5.90;1.00;;;;;;5051549;28;20413;-71
2023/03/05 11:33:13;;;;;;;3.53;3.23;;;6.00;1.00;;;;;;5052556;28;20417;-73
2023/03/05 11:35:41;;;;;;;2.53;2.00;;;5.90;1.00;;;;;;5052328;28;20944;-71
2023/03/05 11:38:23;;;;;;;3.80;1.70;;;5.90;1.00;;;;;;5053425;28;20740;-71
2023/03/05 11:40:51;;;;;;;3.03;1.93;;;5.90;1.00;;;;;;5053298;28;20404;-72
2023/03/05 11:43:22;;;;;;;2.43;2.23;;;5.90;1.00;;;;;;5052172;28;20432;-72
2023/03/05 11:45:55;;;;;;;4.43;2.10;;;5.80;99.90;;;;;;5052273;28;20829;-67
2023/03/05 11:48:29;;;;;;;3.13;2.83;;;5.60;99.90;;;;;;5051383;28;20503;-71
2023/03/05 11:50:58;;;;;;;1.93;1.70;;;5.40;99.90;;;;;;5051968;28;20490;-73
2023/03/05 11:53:31;;;;;;;2.90;2.20;;;5.50;99.90;;;;;;5040204;28;20500;-66
2023/03/05 11:56:23;;;;;;;2.23;2.03;;;5.50;99.90;;;;;;5032155;28;20418;-71
2023/03/05 11:59:03;;;;;;;4.33;2.10;;;5.70;99.90;;;;;;5033184;28;20791;-72
2023/03/05 12:01:33;;;;;;;1.53;1.40;;;6.00;1.00;;;;;;5037991;28;20475;-74
2023/03/05 12:03:59;;;;;;;4.13;2.53;;;6.20;1.00;;;;;;5051859;28;20432;-74
2023/03/05 12:06:33;;;;;;;1.80;1.70;;;6.20;99.90;;;;;;5051172;28;20441;-67
2023/03/05 12:09:05;;;;;;;2.30;1.77;;;6.10;1.00;;;;;;5052185;28;20470;-67
2023/03/05 12:11:32;;;;;;;3.03;2.17;;;5.90;99.90;;;;;;5052984;28;20931;-72
2023/03/05 12:14:03;;;;;;;4.67;2.20;;;5.50;99.90;;;;;;5038141;28;20430;-73
2023/03/05 12:16:44;;;;;;;2.10;1.90;;;5.40;1.00;;;;;;5032162;28;20415;-69
2023/03/05 12:19:10;;;;;;;4.80;1.80;;;5.30;1.00;;;;;;5031345;28;20422;-73
2023/03/05 12:21:42;;;;;;;2.87;2.40;;;5.30;1.00;;;;;;5033043;28;20411;-69
2023/03/05 12:24:23;;;;;;;2.20;2.00;;;5.60;1.00;;;;;;5046673;28;20547;-69
2023/03/05 12:27:03;;;;;;;2.23;1.97;;;5.90;1.00;;;;;;5051123;28;20447;-70
2023/03/05 12:29:31;;;;;;;3.33;3.03;;;6.10;1.00;;;;;;5052725;28;20845;-73
2023/03/05 12:31:59;;;;;;;4.20;2.50;;;6.20;1.00;;;;;;5052696;28;20393;-69
2023/03/05 12:34:40;;;;;;;6.93;2.37;;;6.20;1.00;;;;;;5050722;28;20452;-68
2023/03/05 12:37:33;;;;;;;10.53;2.27;;;6.20;1.00;;;;;;5052776;28;20809;-69
2023/03/05 12:40:05;;;;;;;2.93;2.10;;;6.20;1.00;;;;;;5052567;28;20467;-69
2023/03/05 12:42:31;;;;;;;4.10;2.43;;;6.10;1.00;;;;;;5054390;28;20409;-71
2023/03/05 12:45:13;;;;;;;2.80;1.80;;;6.00;1.00;;;;;;5055152;28;20462;-71
2023/03/05 12:47:40;;;;;;;2.57;2.20;;;5.90;1.00;;;;;;5055597;28;20274;-73
2023/03/05 12:50:25;;;;;;;7.67;1.70;;;5.60;1.00;;;;;;5056472;28;20947;-71
2023/03/05 12:52:51;;;;;;;3.17;1.93;;;5.30;1.00;;;;;;5053163;28;20403;-65
2023/03/05 12:55:19;;;;;;;3.07;2.27;;;4.80;1.00;;;;;;5035739;28;20418;-71
2023/03/05 12:57:46;;;;;;;5.37;4.07;;;4.60;1.00;;;;;;5056552;28;20421;-71
2023/03/05 13:00:52;;;;;;;5.30;3.07;;;4.50;1.00;;;;;;5056221;28;20398;-71
2023/03/05 13:03:41;;;;;;;8.83;4.10;;;4.70;1.00;;;;;;5054047;28;20534;-73
2023/03/05 13:06:29;;;;;;;3.93;2.60;;;4.90;1.00;;;;;;5054088;28;20461;-69
2023/03/05 13:08:58;;;;;;;5.20;2.77;;;5.10;1.00;;;;;;5056139;28;20456;-68
2023/03/05 13:11:24;;;;;;;4.83;2.87;;;5.30;1.00;;;;;;5056127;28;20402;-70
2023/03/05 13:13:50;;;;;;;4.50;2.40;;;5.40;1.00;;;;;;5042719;28;20434;-70
2023/03/05 13:16:25;;;;;;;3.57;2.30;;;5.70;1.00;;;;;;5038748;28;20430;-68
2023/03/05 13:18:53;;;;;;;3.10;1.70;;;6.00;1.00;;;;;;5044290;28;20408;-68
2023/03/05 13:21:23;;;;;;;6.30;2.60;;;6.30;1.00;;;;;;5054850;28;20443;-69